createdAt,value
2019-03-31T00:02:11.810Z,5.23
2019-03-31T00:05:19.316Z,4.03
2019-03-31T00:08:26.665Z,4.90
2019-03-31T00:11:34.971Z,4.23
2019-03-31T00:14:42.499Z,4.57
2019-03-31T00:17:49.504Z,4.57
2019-03-31T00:20:56.714Z,4.70
2019-03-31T00:24:05.369Z,4.03
2019-03-31T00:27:12.380Z,4.57
2019-03-31T00:33:27.294Z,4.07
2019-03-31T00:36:35.477Z,4.07
2019-03-31T00:45:56.520Z,4.47
2019-03-31T00:49:03.962Z,4.83
2019-03-31T00:52:11.107Z,3.70
2019-03-31T00:55:18.708Z,4.37
2019-03-31T00:58:26.333Z,4.30
2019-03-31T01:01:37.065Z,4.30
2019-03-31T01:04:45.290Z,4.17
2019-03-31T01:07:52.304Z,4.37
2019-03-31T01:10:59.544Z,4.43
2019-03-31T01:14:06.943Z,4.30
2019-03-31T01:17:18.731Z,3.97
2019-03-31T01:20:25.269Z,4.47
2019-03-31T01:23:32.379Z,3.73
2019-03-31T01:29:45.712Z,4.30
2019-03-31T01:32:54.448Z,3.70
2019-03-31T01:36:01.421Z,4.75
2019-03-31T01:42:16.742Z,5.03
2019-03-31T01:45:24.335Z,4.83
2019-03-31T01:48:31.912Z,5.03
2019-03-31T01:51:39.323Z,5.10
2019-03-31T01:54:46.381Z,4.27
2019-03-31T01:57:53.975Z,5.10
2019-03-31T02:01:02.601Z,4.67
2019-03-31T02:04:09.769Z,4.63
2019-03-31T02:07:17.102Z,4.83
2019-03-31T02:13:31.264Z,5.07
2019-03-31T02:16:39.331Z,5.07
2019-03-31T02:19:46.388Z,5.33
2019-03-31T02:25:59.413Z,5.17
2019-03-31T02:35:21.280Z,4.93
2019-03-31T02:38:28.280Z,5.13
2019-03-31T02:41:35.933Z,5.57
2019-03-31T02:44:42.872Z,4.80
2019-03-31T02:50:57.319Z,5.43
2019-03-31T02:54:04.633Z,5.17
2019-03-31T02:57:11.652Z,4.93
2019-03-31T03:00:18.936Z,5.90
2019-03-31T03:03:26.447Z,5.60
2019-03-31T03:06:34.792Z,5.07
2019-03-31T03:09:42.163Z,5.23
2019-03-31T03:12:49.257Z,5.47
2019-03-31T03:16:10.702Z,4.90
2019-03-31T03:19:18.353Z,5.77
2019-03-31T03:22:26.260Z,5.33
2019-03-31T03:25:33.295Z,5.30
2019-03-31T03:28:40.603Z,5.73
2019-03-31T03:31:48.451Z,5.53
2019-03-31T03:38:02.417Z,5.77
2019-03-31T03:41:10.297Z,5.60
2019-03-31T03:44:18.100Z,5.27
2019-03-31T03:47:25.291Z,5.67
2019-03-31T03:50:33.339Z,5.57
2019-03-31T03:59:53.355Z,5.60
2019-03-31T04:06:06.797Z,5.20
2019-03-31T04:09:14.251Z,5.90
2019-03-31T04:12:22.434Z,6.40
2019-03-31T04:21:42.287Z,7.27
2019-03-31T04:27:56.311Z,7.03
2019-03-31T04:37:15.541Z,6.60
2019-03-31T04:40:22.728Z,6.40
2019-03-31T04:43:30.123Z,7.00
2019-03-31T04:46:37.294Z,7.67
2019-03-31T04:52:50.624Z,7.20
2019-03-31T04:55:58.270Z,7.47
2019-03-31T05:02:11.633Z,7.07
2019-03-31T05:05:18.682Z,8.00
2019-03-31T05:08:26.066Z,7.67
2019-03-31T05:11:34.014Z,7.40
2019-03-31T05:14:43.135Z,7.73
2019-03-31T05:17:50.634Z,7.93
2019-03-31T05:20:57.876Z,7.43
2019-03-31T05:24:05.240Z,8.20
2019-03-31T05:27:12.287Z,7.80
2019-03-31T05:30:22.940Z,7.73
2019-03-31T05:33:30.296Z,7.33
2019-03-31T05:36:38.239Z,8.67
2019-03-31T05:39:45.247Z,8.57
2019-03-31T05:42:52.470Z,7.87
2019-03-31T05:49:07.332Z,8.13
2019-03-31T05:52:14.634Z,9.07
2019-03-31T05:55:21.719Z,14.37
2019-03-31T05:58:29.155Z,11.03
2019-03-31T06:01:36.940Z,10.73
2019-03-31T06:04:44.072Z,14.43
2019-03-31T06:07:51.410Z,11.77
2019-03-31T06:10:59.245Z,11.23
2019-03-31T06:14:07.236Z,10.57
2019-03-31T06:17:14.638Z,9.90
2019-03-31T06:20:21.833Z,9.80
2019-03-31T06:23:30.331Z,9.43
2019-03-31T06:26:38.012Z,10.50
2019-03-31T06:29:45.614Z,9.97
2019-03-31T06:32:55.467Z,8.90
2019-03-31T06:36:03.953Z,8.73
2019-03-31T06:39:12.264Z,8.70
2019-03-31T06:42:20.294Z,9.33
2019-03-31T06:45:27.750Z,8.13
2019-03-31T06:48:34.671Z,8.33
2019-03-31T06:51:41.908Z,9.47
2019-03-31T06:54:49.388Z,9.10
2019-03-31T06:57:56.402Z,8.60
2019-03-31T07:01:03.576Z,8.75
2019-03-31T07:04:11.639Z,8.83
2019-03-31T07:07:18.883Z,8.80
2019-03-31T07:10:26.677Z,7.90
2019-03-31T07:13:35.325Z,8.23
2019-03-31T07:16:42.689Z,9.30
2019-03-31T07:19:50.404Z,8.43
2019-03-31T07:26:03.656Z,8.63
2019-03-31T07:29:11.816Z,8.93
2019-03-31T07:32:19.344Z,8.73
2019-03-31T07:38:39.186Z,9.60
2019-03-31T07:41:43.735Z,10.23
2019-03-31T07:44:51.391Z,10.13
2019-03-31T07:47:59.288Z,10.23
2019-03-31T07:51:07.367Z,9.17
2019-03-31T07:57:21.442Z,12.40
2019-03-31T08:00:29.826Z,11.10
2019-03-31T08:03:37.471Z,13.10
2019-03-31T08:06:44.953Z,12.93
2019-03-31T08:09:52.385Z,14.20
2019-03-31T08:13:00.058Z,14.43
2019-03-31T08:16:07.457Z,14.33
2019-03-31T08:19:15.051Z,15.47
2019-03-31T08:22:22.351Z,14.47
2019-03-31T08:25:29.418Z,13.80
2019-03-31T08:28:37.275Z,12.67
2019-03-31T08:31:45.627Z,12.93
2019-03-31T08:34:54.405Z,13.77
2019-03-31T08:38:01.821Z,15.03
2019-03-31T08:41:09.288Z,15.17
2019-03-31T08:44:16.679Z,17.97
2019-03-31T08:47:25.436Z,18.37
2019-03-31T08:50:34.938Z,17.57
2019-03-31T08:53:43.908Z,18.63
2019-03-31T08:56:51.692Z,18.33
2019-03-31T08:59:59.445Z,18.55
2019-03-31T09:03:07.238Z,17.80
2019-03-31T09:06:16.758Z,16.82
2019-03-31T09:18:46.287Z,19.53
2019-03-31T09:21:54.976Z,19.90
2019-03-31T09:25:03.667Z,20.33
2019-03-31T09:28:11.788Z,19.00
2019-03-31T09:31:21.547Z,20.67
2019-03-31T09:34:28.642Z,19.67
2019-03-31T09:37:36.527Z,21.20
2019-03-31T09:40:43.954Z,19.20
2019-03-31T09:43:52.301Z,18.33
2019-03-31T09:46:59.265Z,18.63
2019-03-31T09:50:11.292Z,19.03
2019-03-31T09:53:18.287Z,18.83
2019-03-31T09:56:26.342Z,18.43
2019-03-31T09:59:33.710Z,18.70
2019-03-31T10:02:40.721Z,16.80
2019-03-31T10:05:48.433Z,19.67
2019-03-31T10:08:55.871Z,19.70
2019-03-31T10:12:03.622Z,19.07
2019-03-31T10:15:11.271Z,18.10
2019-03-31T10:18:18.482Z,19.60
2019-03-31T10:21:25.952Z,20.90
2019-03-31T10:24:33.317Z,19.90
2019-03-31T10:30:46.581Z,20.17
2019-03-31T10:33:53.577Z,20.43
2019-03-31T10:37:00.589Z,20.43
2019-03-31T10:40:09.062Z,20.17
2019-03-31T10:43:16.144Z,19.97
2019-03-31T10:46:26.871Z,19.67
2019-03-31T10:49:34.387Z,19.53
2019-03-31T10:52:41.425Z,21.40
2019-03-31T11:02:02.345Z,21.20
2019-03-31T11:08:16.278Z,21.10
2019-03-31T11:11:23.462Z,21.43
2019-03-31T11:14:31.465Z,21.10
2019-03-31T11:17:38.402Z,20.90
2019-03-31T11:20:45.713Z,20.93
2019-03-31T11:23:54.686Z,21.53
2019-03-31T11:27:03.450Z,21.60
2019-03-31T11:30:12.356Z,23.00
2019-03-31T11:36:26.658Z,21.03
2019-03-31T11:39:36.390Z,21.97
2019-03-31T11:45:50.921Z,23.27
2019-03-31T11:48:59.300Z,23.30
2019-03-31T11:52:08.759Z,22.23
2019-03-31T11:55:18.678Z,23.23
2019-03-31T11:58:26.288Z,24.17
2019-03-31T12:01:35.493Z,22.43
2019-03-31T12:04:44.006Z,24.13
2019-03-31T12:07:51.295Z,20.13
2019-03-31T12:10:58.957Z,23.43
2019-03-31T12:14:06.531Z,23.97
2019-03-31T12:17:13.741Z,21.80
2019-03-31T12:20:23.739Z,23.23
2019-03-31T12:23:32.541Z,23.40
2019-03-31T12:26:39.969Z,25.13
2019-03-31T12:29:47.302Z,22.83
2019-03-31T12:32:57.333Z,26.23
2019-03-31T12:39:15.999Z,27.33
2019-03-31T12:42:25.323Z,26.33
2019-03-31T12:48:39.980Z,24.63
2019-03-31T12:51:50.108Z,19.13
2019-03-31T12:54:58.083Z,27.90
2019-03-31T12:58:05.331Z,25.57
2019-03-31T13:01:13.321Z,26.03
2019-03-31T13:04:20.755Z,26.73
2019-03-31T13:07:28.389Z,24.93
2019-03-31T13:13:42.301Z,25.27
2019-03-31T13:16:49.996Z,26.10
2019-03-31T13:19:59.989Z,26.60
2019-03-31T13:23:07.331Z,29.03
2019-03-31T13:29:20.978Z,26.40
2019-03-31T13:32:28.273Z,27.07
2019-03-31T13:35:36.345Z,26.97
2019-03-31T13:38:46.735Z,25.40
2019-03-31T13:41:54.336Z,25.80
2019-03-31T13:45:01.545Z,24.40
2019-03-31T13:48:10.800Z,24.30
2019-03-31T13:51:18.775Z,22.90
2019-03-31T13:54:26.050Z,22.27
2019-03-31T13:57:34.209Z,21.37
2019-03-31T14:03:50.455Z,18.53
2019-03-31T14:06:58.789Z,19.90
2019-03-31T14:10:08.474Z,21.97
2019-03-31T14:13:16.706Z,19.17
2019-03-31T14:16:29.029Z,21.93
2019-03-31T14:19:36.439Z,22.10
2019-03-31T14:25:49.759Z,23.30
2019-03-31T14:28:57.273Z,23.37
2019-03-31T14:32:05.562Z,26.23
2019-03-31T14:35:12.714Z,22.77
2019-03-31T14:38:20.639Z,22.60
2019-03-31T14:41:28.357Z,20.50
2019-03-31T14:44:35.491Z,21.27
2019-03-31T14:47:42.641Z,21.10
2019-03-31T14:50:50.299Z,19.63
2019-03-31T14:53:59.313Z,21.03
2019-03-31T14:57:10.834Z,19.50
2019-03-31T15:00:18.087Z,19.83
2019-03-31T15:03:27.496Z,20.13
2019-03-31T15:06:35.474Z,19.43
2019-03-31T15:09:42.900Z,20.83
2019-03-31T15:12:50.340Z,16.97
2019-03-31T15:16:00.489Z,20.37
2019-03-31T15:19:09.363Z,16.47
2019-03-31T15:22:16.504Z,17.80
2019-03-31T15:25:25.293Z,19.77
2019-03-31T15:31:39.364Z,19.70
2019-03-31T15:34:48.282Z,19.87
2019-03-31T15:37:55.372Z,18.70
2019-03-31T15:41:03.472Z,18.17
2019-03-31T15:44:11.281Z,20.93
2019-03-31T15:47:20.410Z,18.60
2019-03-31T15:53:34.387Z,20.03
2019-03-31T15:56:43.289Z,23.10
2019-03-31T15:59:53.296Z,23.87
2019-03-31T16:06:07.318Z,20.30
2019-03-31T16:09:23.463Z,21.67
2019-03-31T16:12:26.456Z,20.07
2019-03-31T16:18:41.754Z,20.43
2019-03-31T16:21:49.295Z,20.10
2019-03-31T16:25:00.513Z,19.57
2019-03-31T16:28:10.051Z,20.23
2019-03-31T16:31:21.978Z,19.97
2019-03-31T16:34:33.274Z,19.67
2019-03-31T16:37:40.771Z,19.53
2019-03-31T16:40:48.438Z,20.43
2019-03-31T16:47:02.960Z,19.90
2019-03-31T16:50:10.542Z,21.37
2019-03-31T16:53:18.442Z,17.50
2019-03-31T16:56:25.697Z,20.53
2019-03-31T16:59:33.241Z,20.07
2019-03-31T17:02:42.643Z,20.43
2019-03-31T17:05:50.827Z,19.97
2019-03-31T17:08:58.261Z,18.20
2019-03-31T17:12:10.619Z,20.00
2019-03-31T17:15:19.250Z,15.83
2019-03-31T17:21:36.818Z,16.83
2019-03-31T17:24:44.734Z,15.90
2019-03-31T17:27:52.552Z,16.57
2019-03-31T17:31:03.521Z,16.97
2019-03-31T17:34:11.782Z,15.83
2019-03-31T17:37:19.597Z,16.43
2019-03-31T17:40:27.745Z,16.27
2019-03-31T17:43:36.376Z,18.30
2019-03-31T17:49:50.648Z,13.23
2019-03-31T17:53:00.013Z,15.07
2019-03-31T17:56:09.309Z,15.70
2019-03-31T18:02:23.462Z,16.20
2019-03-31T18:05:31.390Z,14.80
2019-03-31T18:08:42.723Z,13.47
2019-03-31T18:11:51.351Z,14.37
2019-03-31T18:18:05.269Z,11.90
2019-03-31T18:21:12.452Z,11.90
2019-03-31T18:27:25.755Z,10.60
2019-03-31T18:30:35.568Z,9.80
2019-03-31T18:33:44.298Z,10.53
2019-03-31T18:36:51.868Z,5.17
2019-03-31T18:40:01.802Z,8.67
2019-03-31T18:43:09.298Z,9.60
2019-03-31T18:46:16.750Z,9.73
2019-03-31T18:49:24.791Z,8.37
2019-03-31T18:52:32.752Z,8.30
2019-03-31T18:55:48.862Z,7.10
2019-03-31T18:58:56.002Z,7.20
2019-03-31T19:02:24.995Z,6.47
2019-03-31T19:05:35.258Z,6.53
2019-03-31T19:15:17.675Z,8.47
2019-03-31T19:18:32.658Z,8.43
2019-03-31T19:21:44.798Z,8.53
2019-03-31T19:25:10.301Z,10.17
2019-03-31T19:28:29.323Z,6.90
2019-03-31T19:34:50.839Z,6.63
2019-03-31T19:38:05.262Z,7.23
2019-03-31T19:41:27.280Z,6.93
2019-03-31T19:44:52.430Z,5.33
2019-03-31T19:48:18.326Z,5.90
2019-03-31T19:51:27.778Z,7.33
2019-03-31T19:54:46.138Z,7.80
2019-03-31T19:57:54.764Z,7.07
2019-03-31T20:01:07.306Z,6.53
2019-03-31T20:04:24.679Z,6.63
2019-03-31T20:07:37.254Z,7.17
2019-03-31T20:10:46.378Z,7.93
2019-03-31T20:17:24.998Z,6.73
2019-03-31T20:20:40.283Z,6.63
2019-03-31T20:23:58.432Z,6.97
2019-03-31T20:27:18.115Z,6.03
2019-03-31T20:30:45.285Z,5.47
2019-03-31T20:34:12.862Z,5.20
2019-03-31T20:37:20.583Z,6.27
2019-03-31T20:40:39.376Z,5.23
2019-03-31T20:43:53.612Z,5.50
2019-03-31T20:47:00.836Z,5.73
2019-03-31T20:50:11.887Z,6.70
2019-03-31T20:53:19.568Z,5.60
2019-03-31T20:56:26.504Z,5.17
2019-03-31T20:59:33.839Z,4.63
2019-03-31T21:02:42.560Z,5.07
2019-03-31T21:05:49.756Z,4.50
2019-03-31T21:08:56.820Z,4.90
2019-03-31T21:12:04.264Z,5.47
2019-03-31T21:15:11.307Z,5.63
2019-03-31T21:18:19.489Z,4.80
2019-03-31T21:21:26.438Z,5.37
2019-03-31T21:24:33.453Z,5.00
2019-03-31T21:30:47.804Z,6.27
2019-03-31T21:33:54.725Z,5.70
2019-03-31T21:37:01.749Z,5.00
2019-03-31T21:40:08.954Z,4.73
2019-03-31T21:43:16.411Z,4.70
2019-03-31T21:46:24.541Z,5.43
2019-03-31T21:49:32.576Z,4.70
2019-03-31T21:52:40.427Z,4.67
2019-03-31T21:55:48.798Z,5.20
2019-03-31T21:58:56.435Z,4.87
2019-03-31T22:05:11.936Z,4.90
2019-03-31T22:08:19.134Z,4.47
2019-03-31T22:11:26.301Z,7.67
2019-03-31T22:14:34.328Z,8.00
2019-03-31T22:20:48.130Z,5.93
2019-03-31T22:23:58.030Z,5.90
2019-03-31T22:27:05.407Z,5.50
2019-03-31T22:36:26.306Z,6.50
2019-03-31T22:39:33.338Z,6.70
2019-03-31T22:42:40.439Z,5.70
2019-03-31T22:48:54.180Z,5.10
2019-03-31T22:52:01.540Z,4.77
2019-03-31T22:55:08.913Z,4.50
2019-03-31T22:58:16.372Z,5.53
2019-03-31T23:01:24.235Z,4.97
2019-03-31T23:07:37.508Z,5.37
2019-03-31T23:10:44.933Z,4.77
2019-03-31T23:13:51.928Z,6.23
2019-03-31T23:16:59.570Z,4.60
2019-03-31T23:20:07.799Z,5.03
2019-03-31T23:23:14.663Z,5.83
2019-03-31T23:26:22.303Z,5.30
2019-03-31T23:29:29.344Z,5.03
2019-03-31T23:32:36.677Z,5.27
2019-03-31T23:35:43.743Z,4.50
2019-03-31T23:38:51.981Z,5.10
2019-03-31T23:41:58.975Z,5.03
2019-03-31T23:45:08.312Z,4.80
2019-03-31T23:48:15.335Z,5.80
2019-03-31T23:51:22.311Z,5.40
2019-03-31T23:54:29.641Z,4.63
2019-03-31T23:57:39.776Z,5.03
